createdAt,value
2023-05-22T00:01:42.938Z,17.24
2023-05-22T00:04:10.774Z,17.21
2023-05-22T00:06:38.089Z,17.22
2023-05-22T00:09:04.861Z,17.21
2023-05-22T00:11:31.907Z,17.17
2023-05-22T00:13:58.490Z,17.19
2023-05-22T00:16:25.114Z,17.19
2023-05-22T00:18:51.771Z,17.14
2023-05-22T00:21:18.713Z,17.11
2023-05-22T00:23:45.888Z,17.13
2023-05-22T00:26:16.627Z,17.07
2023-05-22T00:28:43.444Z,17.03
2023-05-22T00:31:10.037Z,16.92
2023-05-22T00:33:36.778Z,16.88
2023-05-22T00:36:03.916Z,16.77
2023-05-22T00:38:32.959Z,16.74
2023-05-22T00:41:04.055Z,16.68
2023-05-22T00:43:30.997Z,16.71
2023-05-22T00:45:57.794Z,16.71
2023-05-22T00:48:24.744Z,16.70
2023-05-22T00:50:52.252Z,16.68
2023-05-22T00:53:21.172Z,16.68
2023-05-22T00:55:48.162Z,16.65
2023-05-22T00:58:17.706Z,16.67
2023-05-22T01:00:45.330Z,16.65
2023-05-22T01:03:12.612Z,16.64
2023-05-22T01:05:40.519Z,16.58
2023-05-22T01:08:08.383Z,16.61
2023-05-22T01:10:37.138Z,16.53
2023-05-22T01:13:09.934Z,16.53
2023-05-22T01:15:47.464Z,16.45
2023-05-22T01:18:25.220Z,16.41
2023-05-22T01:21:04.444Z,16.36
2023-05-22T01:24:01.595Z,16.35
2023-05-22T01:26:49.939Z,16.33
2023-05-22T01:29:43.342Z,16.28
2023-05-22T01:32:13.215Z,16.27
2023-05-22T01:34:43.040Z,16.24
2023-05-22T01:37:10.077Z,16.21
2023-05-22T01:39:37.475Z,16.17
2023-05-22T01:42:05.922Z,16.20
2023-05-22T01:44:32.487Z,16.20
2023-05-22T01:47:03.698Z,16.08
2023-05-22T01:49:30.298Z,16.11
2023-05-22T01:52:12.325Z,16.08
2023-05-22T01:55:03.697Z,16.12
2023-05-22T01:57:48.196Z,16.08
2023-05-22T02:00:18.575Z,16.14
2023-05-22T02:02:49.219Z,16.03
2023-05-22T02:05:19.001Z,16.03
2023-05-22T02:07:46.651Z,16.06
2023-05-22T02:10:14.560Z,15.98
2023-05-22T02:12:42.080Z,15.98
2023-05-22T02:15:09.126Z,15.88
2023-05-22T02:17:43.106Z,15.87
2023-05-22T02:20:15.518Z,15.80
2023-05-22T02:22:47.425Z,15.83
2023-05-22T02:25:15.347Z,15.81
2023-05-22T02:27:43.440Z,15.80
2023-05-22T02:30:11.271Z,15.71
2023-05-22T02:32:39.253Z,15.76
2023-05-22T02:35:06.397Z,15.53
2023-05-22T02:37:32.936Z,15.65
2023-05-22T02:39:59.627Z,15.58
2023-05-22T02:42:26.250Z,15.57
2023-05-22T02:44:52.896Z,15.49
2023-05-22T02:47:19.444Z,15.51
2023-05-22T02:49:46.646Z,15.43
2023-05-22T02:52:13.268Z,15.46
2023-05-22T02:54:39.847Z,15.33
2023-05-22T02:57:06.447Z,15.33
2023-05-22T02:59:33.086Z,15.23
2023-05-22T03:01:59.772Z,15.07
2023-05-22T03:04:26.425Z,14.94
2023-05-22T03:06:53.092Z,14.81
2023-05-22T03:09:20.427Z,14.73
2023-05-22T03:11:47.077Z,14.66
2023-05-22T03:14:13.748Z,14.61
2023-05-22T03:16:40.421Z,14.55
2023-05-22T03:19:15.336Z,14.40
2023-05-22T03:21:44.676Z,14.39
2023-05-22T03:24:12.674Z,14.31
2023-05-22T03:26:39.722Z,14.20
2023-05-22T03:29:06.497Z,14.09
2023-05-22T03:31:34.234Z,14.07
2023-05-22T03:34:01.307Z,14.01
2023-05-22T03:36:28.756Z,14.04
2023-05-22T03:38:56.572Z,13.97
2023-05-22T03:41:23.129Z,13.96
2023-05-22T03:43:49.702Z,14.00
2023-05-22T03:46:16.443Z,13.99
2023-05-22T03:48:43.095Z,13.91
2023-05-22T03:51:09.688Z,13.90
2023-05-22T03:53:36.266Z,13.90
2023-05-22T03:56:02.851Z,13.88
2023-05-22T03:58:29.468Z,13.90
2023-05-22T04:00:58.741Z,13.90
2023-05-22T04:03:25.562Z,13.89
2023-05-22T04:05:52.200Z,13.93
2023-05-22T04:08:18.800Z,14.03
2023-05-22T04:10:46.814Z,14.09
2023-05-22T04:13:13.877Z,14.19
2023-05-22T04:15:41.767Z,14.43
2023-05-22T04:18:08.598Z,14.77
2023-05-22T04:20:35.479Z,15.01
2023-05-22T04:23:02.053Z,15.55
2023-05-22T04:25:28.652Z,15.76
2023-05-22T04:27:55.189Z,16.01
2023-05-22T04:30:22.252Z,15.94
2023-05-22T04:32:48.889Z,16.01
2023-05-22T04:35:18.684Z,16.24
2023-05-22T04:37:48.319Z,16.29
2023-05-22T04:40:15.471Z,16.40
2023-05-22T04:42:45.974Z,16.47
2023-05-22T04:45:14.022Z,16.51
2023-05-22T04:47:41.792Z,16.55
2023-05-22T04:50:08.837Z,16.69
2023-05-22T04:52:36.150Z,16.72
2023-05-22T04:55:04.604Z,16.90
2023-05-22T04:57:32.562Z,17.00
2023-05-22T04:59:59.125Z,16.83
2023-05-22T05:02:25.735Z,16.96
2023-05-22T05:04:53.282Z,17.05
2023-05-22T05:07:19.930Z,17.21
2023-05-22T05:09:46.516Z,17.57
2023-05-22T05:12:13.142Z,17.89
2023-05-22T05:14:39.681Z,18.32
2023-05-22T05:17:06.272Z,18.54
2023-05-22T05:19:35.391Z,18.52
2023-05-22T05:22:03.445Z,18.41
2023-05-22T05:24:30.133Z,18.32
2023-05-22T05:26:56.736Z,18.53
2023-05-22T05:29:23.377Z,18.58
2023-05-22T05:31:49.998Z,18.46
2023-05-22T05:34:16.630Z,18.52
2023-05-22T05:36:43.214Z,18.56
2023-05-22T05:39:09.797Z,19.06
2023-05-22T05:41:36.352Z,18.76
2023-05-22T05:44:02.979Z,19.19
2023-05-22T05:46:29.726Z,18.95
2023-05-22T05:48:56.365Z,19.05
2023-05-22T05:51:22.945Z,19.39
2023-05-22T05:53:49.749Z,19.38
2023-05-22T05:56:16.437Z,19.73
2023-05-22T05:58:43.045Z,19.97
2023-05-22T06:01:09.609Z,19.47
2023-05-22T06:03:36.493Z,19.76
2023-05-22T06:06:04.012Z,19.63
2023-05-22T06:08:32.409Z,19.62
2023-05-22T06:10:59.078Z,19.78
2023-05-22T06:13:25.708Z,19.93
2023-05-22T06:15:52.459Z,19.96
2023-05-22T06:18:19.094Z,20.24
2023-05-22T06:20:45.940Z,20.40
2023-05-22T06:23:12.661Z,20.29
2023-05-22T06:25:40.058Z,20.29
2023-05-22T06:28:06.788Z,19.85
2023-05-22T06:30:39.992Z,19.96
2023-05-22T06:33:07.761Z,20.33
2023-05-22T06:35:34.383Z,20.15
2023-05-22T06:38:00.963Z,20.39
2023-05-22T06:40:27.570Z,20.24
2023-05-22T06:42:54.230Z,20.50
2023-05-22T06:45:20.798Z,20.84
2023-05-22T06:47:47.509Z,21.04
2023-05-22T06:50:14.131Z,20.97
2023-05-22T06:52:40.754Z,20.69
2023-05-22T06:55:07.907Z,20.82
2023-05-22T06:57:34.825Z,21.12
2023-05-22T07:00:01.544Z,21.52
2023-05-22T07:02:28.098Z,21.17
2023-05-22T07:04:54.791Z,21.12
2023-05-22T07:07:21.524Z,21.36
2023-05-22T07:09:48.244Z,21.56
2023-05-22T07:12:14.874Z,21.59
2023-05-22T07:14:41.548Z,21.51
2023-05-22T07:17:08.194Z,21.20
2023-05-22T07:19:35.896Z,21.15
2023-05-22T07:22:02.603Z,21.17
2023-05-22T07:24:29.378Z,21.57
2023-05-22T07:26:55.972Z,21.51
2023-05-22T07:29:23.342Z,21.49
2023-05-22T07:31:50.062Z,21.64
2023-05-22T07:34:18.011Z,21.67
2023-05-22T07:36:44.600Z,21.64
2023-05-22T07:39:11.160Z,21.86
2023-05-22T07:41:37.832Z,22.03
2023-05-22T07:44:04.490Z,21.80
2023-05-22T07:46:31.307Z,22.02
2023-05-22T07:48:57.939Z,22.33
2023-05-22T07:51:24.524Z,22.47
2023-05-22T07:53:51.115Z,22.27
2023-05-22T07:56:17.979Z,23.04
2023-05-22T07:58:44.696Z,22.87
2023-05-22T08:01:11.405Z,22.86
2023-05-22T08:03:38.196Z,23.25
2023-05-22T08:06:05.052Z,23.59
2023-05-22T08:08:32.189Z,23.64
2023-05-22T08:13:28.297Z,23.46
2023-05-22T08:16:00.582Z,23.31
2023-05-22T08:18:29.567Z,23.26
2023-05-22T08:20:56.669Z,23.92
2023-05-22T08:23:23.303Z,23.73
2023-05-22T08:25:50.427Z,24.05
2023-05-22T08:28:17.557Z,23.90
2023-05-22T08:30:44.221Z,23.94
2023-05-22T08:33:12.194Z,23.67
2023-05-22T08:35:39.164Z,23.68
2023-05-22T08:38:05.810Z,23.26
2023-05-22T08:40:37.508Z,23.60
2023-05-22T08:43:06.293Z,23.89
2023-05-22T08:45:34.369Z,23.35
2023-05-22T08:48:08.472Z,23.83
2023-05-22T08:50:42.041Z,24.19
2023-05-22T08:53:12.932Z,23.82
2023-05-22T08:55:39.630Z,23.92
2023-05-22T08:58:06.877Z,24.16
2023-05-22T09:00:34.168Z,24.29
2023-05-22T09:03:01.003Z,23.66
2023-05-22T09:05:27.753Z,24.07
2023-05-22T09:07:56.575Z,24.07
2023-05-22T09:10:25.755Z,23.85
2023-05-22T09:13:12.762Z,24.13
2023-05-22T09:15:39.332Z,24.43
2023-05-22T09:18:06.400Z,24.48
2023-05-22T09:20:38.183Z,24.23
2023-05-22T09:23:12.666Z,24.43
2023-05-22T09:25:39.257Z,24.10
2023-05-22T09:28:06.043Z,24.64
2023-05-22T09:30:35.315Z,24.48
2023-05-22T09:33:02.224Z,24.69
2023-05-22T09:35:32.219Z,24.35
2023-05-22T09:37:59.253Z,24.67
2023-05-22T09:40:27.814Z,24.94
2023-05-22T09:42:54.495Z,25.10
2023-05-22T09:45:25.061Z,24.92
2023-05-22T09:47:51.812Z,25.01
2023-05-22T09:50:18.725Z,24.85
2023-05-22T09:52:46.397Z,25.09
2023-05-22T09:55:15.056Z,25.87
2023-05-22T09:57:45.685Z,25.97
2023-05-22T10:00:15.653Z,25.96
2023-05-22T10:02:46.222Z,26.23
2023-05-22T10:05:21.493Z,26.70
2023-05-22T10:07:51.237Z,27.31
2023-05-22T10:10:21.709Z,27.23
2023-05-22T10:13:00.472Z,27.19
2023-05-22T10:15:28.113Z,28.83
2023-05-22T10:17:55.380Z,27.06
2023-05-22T10:20:23.088Z,28.12
2023-05-22T10:22:49.868Z,26.97
2023-05-22T10:25:18.463Z,27.11
2023-05-22T10:27:45.687Z,27.53
2023-05-22T10:30:35.257Z,28.37
2023-05-22T10:33:27.061Z,28.06
2023-05-22T10:36:05.778Z,28.36
2023-05-22T10:38:40.671Z,28.72
2023-05-22T10:41:08.333Z,29.26
2023-05-22T10:43:38.872Z,28.84
2023-05-22T10:46:07.418Z,29.33
2023-05-22T10:48:42.092Z,29.02
2023-05-22T10:51:09.134Z,29.20
2023-05-22T10:53:36.978Z,29.09
2023-05-22T10:56:13.964Z,29.03
2023-05-22T10:58:45.069Z,29.31
2023-05-22T11:01:16.822Z,27.67
2023-05-22T11:04:00.666Z,28.48
2023-05-22T11:06:34.912Z,28.66
2023-05-22T11:09:19.563Z,28.59
2023-05-22T11:11:47.220Z,29.30
2023-05-22T11:14:18.366Z,29.26
2023-05-22T11:16:45.024Z,28.37
2023-05-22T11:19:22.568Z,28.29
2023-05-22T11:21:50.284Z,29.15
2023-05-22T11:24:18.280Z,29.22
2023-05-22T11:27:00.872Z,28.35
2023-05-22T11:29:29.450Z,28.98
2023-05-22T11:31:58.034Z,28.78
2023-05-22T11:34:25.606Z,30.15
2023-05-22T11:37:01.667Z,30.11
2023-05-22T11:39:28.371Z,30.28
2023-05-22T11:41:55.305Z,29.22
2023-05-22T11:44:21.936Z,29.09
2023-05-22T11:46:48.673Z,29.59
2023-05-22T11:49:15.352Z,29.88
2023-05-22T11:51:43.076Z,29.73
2023-05-22T11:54:10.663Z,30.36
2023-05-22T11:56:37.375Z,29.38
2023-05-22T11:59:04.153Z,29.12
2023-05-22T12:01:30.820Z,29.45
2023-05-22T12:03:57.499Z,29.31
2023-05-22T12:06:24.281Z,29.55
2023-05-22T12:08:51.108Z,29.32
2023-05-22T12:11:17.992Z,29.52
2023-05-22T12:13:45.638Z,28.89
2023-05-22T12:16:21.994Z,29.88
2023-05-22T12:18:52.734Z,29.02
2023-05-22T12:21:20.688Z,29.33
2023-05-22T12:23:51.725Z,28.88
2023-05-22T12:26:19.140Z,29.23
2023-05-22T12:28:46.061Z,29.40
2023-05-22T12:31:20.650Z,28.84
2023-05-22T12:33:47.330Z,28.72
2023-05-22T12:36:16.202Z,28.89
2023-05-22T12:38:44.104Z,28.19
2023-05-22T12:41:10.683Z,28.69
2023-05-22T12:43:37.284Z,29.03
2023-05-22T12:46:04.208Z,29.62
2023-05-22T12:48:30.827Z,29.28
2023-05-22T12:50:57.357Z,28.73
2023-05-22T12:53:23.984Z,28.87
2023-05-22T12:55:50.600Z,28.81
2023-05-22T12:58:17.248Z,28.24
2023-05-22T13:00:43.806Z,28.17
2023-05-22T13:03:12.261Z,29.01
2023-05-22T13:05:38.928Z,28.56
2023-05-22T13:08:05.997Z,28.21
2023-05-22T13:10:32.589Z,28.51
2023-05-22T13:12:59.141Z,28.76
2023-05-22T13:15:25.775Z,28.63
2023-05-22T13:17:52.377Z,28.97
2023-05-22T13:20:19.054Z,29.00
2023-05-22T13:22:45.853Z,28.68
2023-05-22T13:25:14.111Z,28.72
2023-05-22T13:27:40.708Z,28.73
2023-05-22T13:30:07.737Z,28.57
2023-05-22T13:32:35.088Z,28.97
2023-05-22T13:35:01.885Z,29.12
2023-05-22T13:37:28.510Z,29.19
2023-05-22T13:39:55.204Z,28.28
2023-05-22T13:42:21.793Z,28.08
2023-05-22T13:44:48.460Z,27.79
2023-05-22T13:47:15.231Z,27.97
2023-05-22T13:49:42.022Z,27.92
2023-05-22T13:52:08.555Z,27.93
2023-05-22T13:54:35.271Z,27.94
2023-05-22T13:57:02.665Z,28.26
2023-05-22T13:59:29.966Z,28.13
2023-05-22T14:01:56.628Z,27.96
2023-05-22T14:04:23.263Z,27.89
2023-05-22T14:06:49.881Z,28.48
2023-05-22T14:09:16.484Z,28.08
2023-05-22T14:11:43.160Z,28.14
2023-05-22T14:14:09.796Z,28.17
2023-05-22T14:16:36.424Z,28.15
2023-05-22T14:19:03.296Z,28.02
2023-05-22T14:21:31.142Z,28.27
2023-05-22T14:23:57.734Z,28.08
2023-05-22T14:26:24.471Z,28.19
2023-05-22T14:28:51.229Z,28.05
2023-05-22T14:31:17.855Z,28.31
2023-05-22T14:33:44.455Z,28.09
2023-05-22T14:36:13.963Z,28.28
2023-05-22T14:38:40.610Z,28.46
2023-05-22T14:41:07.166Z,28.26
2023-05-22T14:43:33.822Z,28.18
2023-05-22T14:46:00.542Z,28.03
2023-05-22T14:48:29.483Z,28.00
2023-05-22T14:50:56.396Z,27.92
2023-05-22T14:53:23.452Z,27.55
2023-05-22T14:55:50.277Z,27.44
2023-05-22T14:58:16.954Z,27.44
2023-05-22T15:00:43.764Z,27.93
2023-05-22T15:03:12.115Z,27.77
2023-05-22T15:05:38.901Z,27.56
2023-05-22T15:08:06.350Z,27.61
2023-05-22T15:10:32.939Z,27.84
2023-05-22T15:13:00.218Z,28.27
2023-05-22T15:15:26.791Z,27.84
2023-05-22T15:17:53.421Z,27.97
2023-05-22T15:20:20.089Z,28.45
2023-05-22T15:22:46.654Z,28.56
2023-05-22T15:25:15.585Z,28.67
2023-05-22T15:27:42.638Z,28.37
2023-05-22T15:30:10.194Z,28.29
2023-05-22T15:32:37.543Z,28.18
2023-05-22T15:35:07.144Z,28.38
2023-05-22T15:37:34.288Z,28.13
2023-05-22T15:40:02.007Z,28.04
2023-05-22T15:42:28.838Z,27.85
2023-05-22T15:44:55.544Z,27.81
2023-05-22T15:47:22.297Z,28.02
2023-05-22T15:49:48.841Z,28.29
2023-05-22T15:52:15.799Z,28.30
2023-05-22T15:54:42.360Z,28.40
2023-05-22T15:57:08.961Z,28.35
2023-05-22T15:59:35.514Z,28.19
2023-05-22T16:02:02.142Z,28.18
2023-05-22T16:04:28.750Z,28.08
2023-05-22T16:06:55.334Z,28.15
2023-05-22T16:09:21.924Z,28.25
2023-05-22T16:11:49.127Z,28.09
2023-05-22T16:14:15.781Z,27.79
2023-05-22T16:16:42.380Z,28.13
2023-05-22T16:19:09.016Z,28.16
2023-05-22T16:21:36.003Z,27.93
2023-05-22T16:24:03.706Z,28.02
2023-05-22T16:26:30.392Z,28.11
2023-05-22T16:28:57.029Z,28.09
2023-05-22T16:31:23.682Z,28.10
2023-05-22T16:33:50.318Z,28.01
2023-05-22T16:36:16.962Z,27.82
2023-05-22T16:38:43.626Z,27.76
2023-05-22T16:41:10.211Z,27.73
2023-05-22T16:43:38.240Z,27.61
2023-05-22T16:46:04.908Z,27.62
2023-05-22T16:48:31.452Z,27.54
2023-05-22T16:50:58.034Z,27.66
2023-05-22T16:53:24.589Z,27.58
2023-05-22T16:55:51.442Z,27.46
2023-05-22T16:58:18.125Z,27.48
2023-05-22T17:00:44.884Z,27.31
2023-05-22T17:03:12.150Z,27.09
2023-05-22T17:05:39.219Z,27.11
2023-05-22T17:08:06.682Z,26.70
2023-05-22T17:10:33.304Z,26.57
2023-05-22T17:12:59.880Z,26.65
2023-05-22T17:15:26.525Z,26.51
2023-05-22T17:17:53.118Z,26.80
2023-05-22T17:20:23.251Z,26.70
2023-05-22T17:22:50.314Z,26.69
2023-05-22T17:25:17.072Z,26.74
2023-05-22T17:27:43.911Z,26.69
2023-05-22T17:30:11.233Z,26.60
2023-05-22T17:32:38.099Z,26.58
2023-05-22T17:35:06.858Z,26.51
2023-05-22T17:37:34.042Z,26.40
2023-05-22T17:40:00.606Z,26.34
2023-05-22T17:42:27.252Z,26.22
2023-05-22T17:44:53.824Z,26.08
2023-05-22T17:47:20.459Z,25.99
2023-05-22T17:49:47.067Z,25.95
2023-05-22T17:52:14.527Z,25.88
2023-05-22T17:54:41.314Z,25.82
2023-05-22T17:57:07.881Z,25.71
2023-05-22T17:59:34.681Z,25.63
2023-05-22T18:02:01.397Z,25.54
2023-05-22T18:04:30.688Z,25.51
2023-05-22T18:06:57.239Z,25.41
2023-05-22T18:09:23.819Z,25.31
2023-05-22T18:11:52.643Z,25.23
2023-05-22T18:14:19.449Z,25.10
2023-05-22T18:16:46.048Z,24.91
2023-05-22T18:19:12.687Z,24.86
2023-05-22T18:21:39.264Z,24.77
2023-05-22T18:24:06.105Z,24.66
2023-05-22T18:26:32.796Z,24.44
2023-05-22T18:28:59.510Z,24.48
2023-05-22T18:31:26.169Z,24.46
2023-05-22T18:33:52.823Z,24.30
2023-05-22T18:36:21.192Z,24.13
2023-05-22T18:38:47.737Z,24.06
2023-05-22T18:41:14.329Z,23.94
2023-05-22T18:43:40.903Z,23.83
2023-05-22T18:46:07.572Z,23.63
2023-05-22T18:48:34.152Z,23.56
2023-05-22T18:51:01.019Z,23.43
2023-05-22T18:53:27.684Z,23.32
2023-05-22T18:55:54.428Z,23.22
2023-05-22T18:58:21.264Z,23.03
2023-05-22T19:00:48.208Z,23.00
2023-05-22T19:03:14.942Z,22.89
2023-05-22T19:05:42.684Z,22.62
2023-05-22T19:08:09.826Z,22.51
2023-05-22T19:10:36.472Z,22.52
2023-05-22T19:13:03.239Z,22.30
2023-05-22T19:15:29.877Z,22.39
2023-05-22T19:17:56.537Z,22.29
2023-05-22T19:20:23.903Z,22.21
2023-05-22T19:22:51.556Z,22.17
2023-05-22T19:25:18.511Z,22.15
2023-05-22T19:27:45.402Z,21.79
2023-05-22T19:30:15.251Z,21.73
2023-05-22T19:32:43.606Z,21.90
2023-05-22T19:35:11.228Z,21.76
2023-05-22T19:37:38.282Z,21.68
2023-05-22T19:40:06.099Z,21.58
2023-05-22T19:42:33.040Z,21.55
2023-05-22T19:44:59.910Z,21.51
2023-05-22T19:47:27.413Z,21.45
2023-05-22T19:49:54.317Z,21.48
2023-05-22T19:52:20.933Z,21.39
2023-05-22T19:54:47.672Z,21.23
2023-05-22T19:57:14.649Z,21.22
2023-05-22T19:59:41.258Z,21.17
2023-05-22T20:02:08.203Z,21.06
2023-05-22T20:04:35.361Z,21.04
2023-05-22T20:07:04.058Z,20.98
2023-05-22T20:09:31.294Z,20.96
2023-05-22T20:11:57.874Z,20.91
2023-05-22T20:14:24.476Z,20.92
2023-05-22T20:16:51.816Z,20.90
2023-05-22T20:19:20.385Z,20.81
2023-05-22T20:21:49.985Z,20.66
2023-05-22T20:24:19.502Z,20.54
2023-05-22T20:26:46.725Z,20.55
2023-05-22T20:29:14.178Z,20.48
2023-05-22T20:31:40.887Z,20.50
2023-05-22T20:34:09.438Z,20.45
2023-05-22T20:36:36.677Z,20.46
2023-05-22T20:39:03.594Z,20.29
2023-05-22T20:41:30.234Z,20.27
2023-05-22T20:43:58.766Z,20.23
2023-05-22T20:46:26.780Z,20.24
2023-05-22T20:48:53.917Z,20.14
2023-05-22T20:51:21.010Z,20.18
2023-05-22T20:53:48.464Z,20.18
2023-05-22T20:56:15.401Z,20.22
2023-05-22T20:58:42.710Z,20.21
2023-05-22T21:01:11.362Z,20.22
2023-05-22T21:03:38.019Z,20.19
2023-05-22T21:06:04.876Z,20.18
2023-05-22T21:08:31.584Z,20.09
2023-05-22T21:10:59.168Z,20.02
2023-05-22T21:13:25.816Z,19.99
2023-05-22T21:15:52.362Z,19.84
2023-05-22T21:18:20.042Z,19.83
2023-05-22T21:20:46.888Z,19.64
2023-05-22T21:23:13.745Z,19.54
2023-05-22T21:25:40.525Z,19.56
2023-05-22T21:28:08.213Z,19.51
2023-05-22T21:30:35.243Z,19.46
2023-05-22T21:33:02.102Z,19.50
2023-05-22T21:35:28.789Z,19.29
2023-05-22T21:37:55.421Z,19.27
2023-05-22T21:40:22.115Z,19.25
2023-05-22T21:42:48.817Z,19.10
2023-05-22T21:45:15.637Z,18.96
2023-05-22T21:47:42.309Z,18.80
2023-05-22T21:50:09.430Z,18.83
2023-05-22T21:52:36.345Z,18.85
2023-05-22T21:55:03.055Z,18.75
2023-05-22T21:57:29.685Z,18.74
2023-05-22T21:59:56.314Z,18.69
2023-05-22T22:02:23.038Z,18.69
2023-05-22T22:04:49.826Z,18.42
2023-05-22T22:07:16.518Z,18.48
2023-05-22T22:09:43.262Z,18.23
2023-05-22T22:12:09.929Z,18.23
2023-05-22T22:14:36.712Z,18.14
2023-05-22T22:17:06.075Z,18.17
2023-05-22T22:19:34.574Z,18.02
2023-05-22T22:22:02.112Z,17.73
2023-05-22T22:24:29.944Z,17.73
2023-05-22T22:26:57.257Z,17.69
2023-05-22T22:29:24.029Z,17.53
2023-05-22T22:31:50.843Z,17.59
2023-05-22T22:34:17.527Z,17.69
2023-05-22T22:36:44.505Z,17.68
2023-05-22T22:39:11.383Z,17.78
2023-05-22T22:41:38.141Z,17.83
2023-05-22T22:44:04.816Z,17.77
2023-05-22T22:46:31.719Z,17.79
2023-05-22T22:49:01.977Z,17.76
2023-05-22T22:51:31.818Z,17.61
2023-05-22T22:53:58.597Z,17.57
2023-05-22T22:56:29.548Z,17.57
2023-05-22T22:58:57.416Z,17.59
2023-05-22T23:01:24.403Z,17.54
2023-05-22T23:03:51.201Z,17.58
2023-05-22T23:06:18.422Z,17.61
2023-05-22T23:08:45.752Z,17.52
2023-05-22T23:11:12.438Z,17.46
2023-05-22T23:13:41.482Z,17.41
2023-05-22T23:16:08.302Z,17.43
2023-05-22T23:18:35.350Z,17.54
2023-05-22T23:21:02.302Z,17.64
2023-05-22T23:23:28.984Z,17.37
2023-05-22T23:25:58.079Z,17.47
2023-05-22T23:28:25.856Z,17.36
2023-05-22T23:30:53.016Z,17.34
2023-05-22T23:33:19.746Z,17.30
2023-05-22T23:35:47.565Z,17.33
2023-05-22T23:38:14.236Z,17.42
2023-05-22T23:40:40.921Z,17.34
2023-05-22T23:43:07.549Z,17.33
2023-05-22T23:45:34.232Z,17.29
2023-05-22T23:48:00.945Z,17.20
2023-05-22T23:50:27.701Z,17.31
2023-05-22T23:52:54.580Z,17.23
2023-05-22T23:55:21.220Z,17.08
2023-05-22T23:57:50.245Z,17.02
